sensor_id;sensor_type;location;lat;lon;timestamp;temperature;humidity
5802;DHT22;2927;49.366;8.530;2023-04-24T00:02:23;11.10;99.90
5802;DHT22;2927;49.366;8.530;2023-04-24T00:04:49;11.10;99.90
5802;DHT22;2927;49.366;8.530;2023-04-24T00:07:15;11.00;99.90
5802;DHT22;2927;49.366;8.530;2023-04-24T00:09:45;11.00;99.90
5802;DHT22;2927;49.366;8.530;2023-04-24T00:12:10;11.00;99.90
5802;DHT22;2927;49.366;8.530;2023-04-24T00:14:36;11.00;99.90
5802;DHT22;2927;49.366;8.530;2023-04-24T00:17:02;11.00;99.90
5802;DHT22;2927;49.366;8.530;2023-04-24T00:19:30;11.00;99.90
5802;DHT22;2927;49.366;8.530;2023-04-24T00:21:56;11.00;99.90
5802;DHT22;2927;49.366;8.530;2023-04-24T00:24:21;11.00;99.90
5802;DHT22;2927;49.366;8.530;2023-04-24T00:26:47;11.10;99.90
5802;DHT22;2927;49.366;8.530;2023-04-24T00:29:12;11.10;99.90
5802;DHT22;2927;49.366;8.530;2023-04-24T00:31:38;11.10;99.90
5802;DHT22;2927;49.366;8.530;2023-04-24T00:34:04;11.10;99.90
5802;DHT22;2927;49.366;8.530;2023-04-24T00:36:30;11.10;99.90
5802;DHT22;2927;49.366;8.530;2023-04-24T00:38:57;11.10;99.90
5802;DHT22;2927;49.366;8.530;2023-04-24T00:41:23;11.00;99.90
5802;DHT22;2927;49.366;8.530;2023-04-24T00:43:49;11.00;99.90
5802;DHT22;2927;49.366;8.530;2023-04-24T00:46:16;10.90;99.90
5802;DHT22;2927;49.366;8.530;2023-04-24T00:48:43;10.90;99.90
5802;DHT22;2927;49.366;8.530;2023-04-24T00:51:09;10.90;99.90
5802;DHT22;2927;49.366;8.530;2023-04-24T00:53:34;10.90;99.90
5802;DHT22;2927;49.366;8.530;2023-04-24T00:56:01;10.90;99.90
5802;DHT22;2927;49.366;8.530;2023-04-24T00:58:26;10.90;99.90
5802;DHT22;2927;49.366;8.530;2023-04-24T01:00:52;10.80;99.90
5802;DHT22;2927;49.366;8.530;2023-04-24T01:03:25;10.80;99.90
5802;DHT22;2927;49.366;8.530;2023-04-24T01:05:52;10.80;99.90
5802;DHT22;2927;49.366;8.530;2023-04-24T01:08:19;10.80;99.90
5802;DHT22;2927;49.366;8.530;2023-04-24T01:10:46;10.80;99.90
5802;DHT22;2927;49.366;8.530;2023-04-24T01:13:13;10.80;99.90
5802;DHT22;2927;49.366;8.530;2023-04-24T01:15:39;10.80;99.90
5802;DHT22;2927;49.366;8.530;2023-04-24T01:18:04;10.80;99.90
5802;DHT22;2927;49.366;8.530;2023-04-24T01:20:30;10.80;99.90
5802;DHT22;2927;49.366;8.530;2023-04-24T01:22:57;10.80;99.90
5802;DHT22;2927;49.366;8.530;2023-04-24T01:25:24;10.70;99.90
5802;DHT22;2927;49.366;8.530;2023-04-24T01:27:50;10.80;99.90
5802;DHT22;2927;49.366;8.530;2023-04-24T01:30:15;10.80;99.90
5802;DHT22;2927;49.366;8.530;2023-04-24T01:32:41;10.80;99.90
5802;DHT22;2927;49.366;8.530;2023-04-24T01:35:10;10.80;99.90
5802;DHT22;2927;49.366;8.530;2023-04-24T01:37:35;10.80;99.90
5802;DHT22;2927;49.366;8.530;2023-04-24T01:40:03;10.70;99.90
5802;DHT22;2927;49.366;8.530;2023-04-24T01:42:29;10.70;99.90
5802;DHT22;2927;49.366;8.530;2023-04-24T01:44:55;10.60;99.90
5802;DHT22;2927;49.366;8.530;2023-04-24T01:47:22;10.70;99.90
5802;DHT22;2927;49.366;8.530;2023-04-24T01:49:48;10.60;99.90
5802;DHT22;2927;49.366;8.530;2023-04-24T01:52:14;10.60;99.90
5802;DHT22;2927;49.366;8.530;2023-04-24T01:54:40;10.60;99.90
5802;DHT22;2927;49.366;8.530;2023-04-24T01:57:06;10.60;99.90
5802;DHT22;2927;49.366;8.530;2023-04-24T01:59:33;10.60;99.90
5802;DHT22;2927;49.366;8.530;2023-04-24T02:01:59;10.60;99.90
5802;DHT22;2927;49.366;8.530;2023-04-24T02:04:25;10.60;99.90
5802;DHT22;2927;49.366;8.530;2023-04-24T02:06:50;10.50;99.90
5802;DHT22;2927;49.366;8.530;2023-04-24T02:09:16;10.50;99.90
5802;DHT22;2927;49.366;8.530;2023-04-24T02:11:42;10.60;99.90
5802;DHT22;2927;49.366;8.530;2023-04-24T02:14:07;10.50;99.90
5802;DHT22;2927;49.366;8.530;2023-04-24T02:16:32;10.60;99.90
5802;DHT22;2927;49.366;8.530;2023-04-24T02:18:59;10.60;99.90
5802;DHT22;2927;49.366;8.530;2023-04-24T02:21:24;10.60;99.90
5802;DHT22;2927;49.366;8.530;2023-04-24T02:23:50;10.60;99.90
5802;DHT22;2927;49.366;8.530;2023-04-24T02:26:16;10.60;99.90
5802;DHT22;2927;49.366;8.530;2023-04-24T02:28:41;10.60;99.90
5802;DHT22;2927;49.366;8.530;2023-04-24T02:31:07;10.60;99.90
5802;DHT22;2927;49.366;8.530;2023-04-24T02:33:32;10.60;99.90
5802;DHT22;2927;49.366;8.530;2023-04-24T02:35:58;10.50;99.90
5802;DHT22;2927;49.366;8.530;2023-04-24T02:38:24;10.50;99.90
5802;DHT22;2927;49.366;8.530;2023-04-24T02:40:49;10.50;99.90
5802;DHT22;2927;49.366;8.530;2023-04-24T02:43:15;10.50;99.90
5802;DHT22;2927;49.366;8.530;2023-04-24T02:45:40;10.60;99.90
5802;DHT22;2927;49.366;8.530;2023-04-24T02:48:06;10.60;99.90
5802;DHT22;2927;49.366;8.530;2023-04-24T02:50:31;10.70;99.90
5802;DHT22;2927;49.366;8.530;2023-04-24T02:52:57;10.70;99.90
5802;DHT22;2927;49.366;8.530;2023-04-24T02:55:22;10.70;99.90
5802;DHT22;2927;49.366;8.530;2023-04-24T02:57:48;10.80;99.90
5802;DHT22;2927;49.366;8.530;2023-04-24T03:00:14;10.80;99.90
5802;DHT22;2927;49.366;8.530;2023-04-24T03:02:39;10.80;99.90
5802;DHT22;2927;49.366;8.530;2023-04-24T03:05:05;10.80;99.90
5802;DHT22;2927;49.366;8.530;2023-04-24T03:07:31;10.80;99.90
5802;DHT22;2927;49.366;8.530;2023-04-24T03:09:57;10.70;99.90
5802;DHT22;2927;49.366;8.530;2023-04-24T03:12:23;10.60;99.90
5802;DHT22;2927;49.366;8.530;2023-04-24T03:14:49;10.50;99.90
5802;DHT22;2927;49.366;8.530;2023-04-24T03:17:14;10.50;99.90
5802;DHT22;2927;49.366;8.530;2023-04-24T03:19:40;10.40;99.90
5802;DHT22;2927;49.366;8.530;2023-04-24T03:22:06;10.30;99.90
5802;DHT22;2927;49.366;8.530;2023-04-24T03:24:31;10.20;99.90
5802;DHT22;2927;49.366;8.530;2023-04-24T03:26:57;10.20;99.90
5802;DHT22;2927;49.366;8.530;2023-04-24T03:29:22;10.10;99.90
5802;DHT22;2927;49.366;8.530;2023-04-24T03:31:48;10.00;99.90
5802;DHT22;2927;49.366;8.530;2023-04-24T03:34:14;10.00;99.90
5802;DHT22;2927;49.366;8.530;2023-04-24T03:36:39;9.90;99.90
5802;DHT22;2927;49.366;8.530;2023-04-24T03:39:05;9.90;99.90
5802;DHT22;2927;49.366;8.530;2023-04-24T03:41:30;9.80;99.90
5802;DHT22;2927;49.366;8.530;2023-04-24T03:43:56;9.70;99.90
5802;DHT22;2927;49.366;8.530;2023-04-24T03:46:22;9.70;99.90
5802;DHT22;2927;49.366;8.530;2023-04-24T03:48:47;9.70;99.90
5802;DHT22;2927;49.366;8.530;2023-04-24T03:51:13;9.60;99.90
5802;DHT22;2927;49.366;8.530;2023-04-24T03:53:38;9.60;99.90
5802;DHT22;2927;49.366;8.530;2023-04-24T03:56:04;9.60;99.90
5802;DHT22;2927;49.366;8.530;2023-04-24T03:58:29;9.60;99.90
5802;DHT22;2927;49.366;8.530;2023-04-24T04:00:55;9.50;99.90
5802;DHT22;2927;49.366;8.530;2023-04-24T04:03:22;9.50;99.90
5802;DHT22;2927;49.366;8.530;2023-04-24T04:05:47;9.40;99.90
5802;DHT22;2927;49.366;8.530;2023-04-24T04:08:13;9.30;99.90
5802;DHT22;2927;49.366;8.530;2023-04-24T04:10:38;9.30;99.90
5802;DHT22;2927;49.366;8.530;2023-04-24T04:13:04;9.20;99.90
5802;DHT22;2927;49.366;8.530;2023-04-24T04:15:31;9.20;99.90
5802;DHT22;2927;49.366;8.530;2023-04-24T04:17:57;9.10;99.90
5802;DHT22;2927;49.366;8.530;2023-04-24T04:20:22;9.10;99.90
5802;DHT22;2927;49.366;8.530;2023-04-24T04:22:48;9.00;99.90
5802;DHT22;2927;49.366;8.530;2023-04-24T04:25:13;8.90;99.90
5802;DHT22;2927;49.366;8.530;2023-04-24T04:27:39;8.80;99.90
5802;DHT22;2927;49.366;8.530;2023-04-24T04:30:07;8.80;99.90
5802;DHT22;2927;49.366;8.530;2023-04-24T04:32:34;8.70;99.90
5802;DHT22;2927;49.366;8.530;2023-04-24T04:35:00;8.70;99.90
5802;DHT22;2927;49.366;8.530;2023-04-24T04:37:30;8.70;99.90
5802;DHT22;2927;49.366;8.530;2023-04-24T04:39:56;8.70;99.90
5802;DHT22;2927;49.366;8.530;2023-04-24T04:42:23;8.60;99.90
5802;DHT22;2927;49.366;8.530;2023-04-24T04:44:49;8.60;99.90
5802;DHT22;2927;49.366;8.530;2023-04-24T04:47:16;8.60;99.90
5802;DHT22;2927;49.366;8.530;2023-04-24T04:49:42;8.60;99.90
5802;DHT22;2927;49.366;8.530;2023-04-24T04:52:08;8.60;99.90
5802;DHT22;2927;49.366;8.530;2023-04-24T04:54:34;8.70;99.90
5802;DHT22;2927;49.366;8.530;2023-04-24T04:56:59;8.70;99.90
5802;DHT22;2927;49.366;8.530;2023-04-24T04:59:26;8.70;99.90
5802;DHT22;2927;49.366;8.530;2023-04-24T05:01:52;8.80;99.90
5802;DHT22;2927;49.366;8.530;2023-04-24T05:04:17;8.80;99.90
5802;DHT22;2927;49.366;8.530;2023-04-24T05:06:43;8.90;99.90
5802;DHT22;2927;49.366;8.530;2023-04-24T05:09:09;8.90;99.90
5802;DHT22;2927;49.366;8.530;2023-04-24T05:11:35;9.00;99.90
5802;DHT22;2927;49.366;8.530;2023-04-24T05:14:00;9.00;99.90
5802;DHT22;2927;49.366;8.530;2023-04-24T05:16:26;9.10;99.90
5802;DHT22;2927;49.366;8.530;2023-04-24T05:18:52;9.20;99.90
5802;DHT22;2927;49.366;8.530;2023-04-24T05:21:17;9.30;99.90
5802;DHT22;2927;49.366;8.530;2023-04-24T05:23:43;9.30;99.90
5802;DHT22;2927;49.366;8.530;2023-04-24T05:26:08;9.40;99.90
5802;DHT22;2927;49.366;8.530;2023-04-24T05:28:34;9.60;99.90
5802;DHT22;2927;49.366;8.530;2023-04-24T05:31:02;9.80;99.90
5802;DHT22;2927;49.366;8.530;2023-04-24T05:33:27;10.00;99.90
5802;DHT22;2927;49.366;8.530;2023-04-24T05:35:53;10.20;99.90
5802;DHT22;2927;49.366;8.530;2023-04-24T05:38:19;10.50;99.90
5802;DHT22;2927;49.366;8.530;2023-04-24T05:40:45;10.70;99.90
5802;DHT22;2927;49.366;8.530;2023-04-24T05:43:11;10.90;99.90
5802;DHT22;2927;49.366;8.530;2023-04-24T05:45:38;11.20;99.90
5802;DHT22;2927;49.366;8.530;2023-04-24T05:48:03;11.30;99.90
5802;DHT22;2927;49.366;8.530;2023-04-24T05:50:29;11.70;99.90
5802;DHT22;2927;49.366;8.530;2023-04-24T05:52:54;13.00;99.90
5802;DHT22;2927;49.366;8.530;2023-04-24T05:55:20;14.80;1.00
5802;DHT22;2927;49.366;8.530;2023-04-24T05:57:45;16.10;1.00
5802;DHT22;2927;49.366;8.530;2023-04-24T06:00:12;17.90;1.00
5802;DHT22;2927;49.366;8.530;2023-04-24T06:02:38;19.10;1.00
5802;DHT22;2927;49.366;8.530;2023-04-24T06:05:04;19.50;1.00
5802;DHT22;2927;49.366;8.530;2023-04-24T06:07:30;19.30;1.00
5802;DHT22;2927;49.366;8.530;2023-04-24T06:09:56;18.10;1.00
5802;DHT22;2927;49.366;8.530;2023-04-24T06:12:22;17.20;99.90
5802;DHT22;2927;49.366;8.530;2023-04-24T06:14:48;16.10;1.00
5802;DHT22;2927;49.366;8.530;2023-04-24T06:17:14;15.00;1.00
5802;DHT22;2927;49.366;8.530;2023-04-24T06:19:39;13.80;99.90
5802;DHT22;2927;49.366;8.530;2023-04-24T06:22:05;13.10;99.90
5802;DHT22;2927;49.366;8.530;2023-04-24T06:24:31;12.60;1.00
5802;DHT22;2927;49.366;8.530;2023-04-24T06:26:56;12.30;1.00
5802;DHT22;2927;49.366;8.530;2023-04-24T06:29:24;12.00;1.00
5802;DHT22;2927;49.366;8.530;2023-04-24T06:31:49;11.90;99.90
5802;DHT22;2927;49.366;8.530;2023-04-24T06:34:15;12.00;1.00
5802;DHT22;2927;49.366;8.530;2023-04-24T06:36:41;12.40;1.00
5802;DHT22;2927;49.366;8.530;2023-04-24T06:39:06;12.60;1.00
5802;DHT22;2927;49.366;8.530;2023-04-24T06:41:32;12.50;1.00
5802;DHT22;2927;49.366;8.530;2023-04-24T06:43:57;12.20;1.00
5802;DHT22;2927;49.366;8.530;2023-04-24T06:46:23;12.30;99.90
5802;DHT22;2927;49.366;8.530;2023-04-24T06:48:52;12.30;1.00
5802;DHT22;2927;49.366;8.530;2023-04-24T06:51:17;12.60;1.00
5802;DHT22;2927;49.366;8.530;2023-04-24T06:53:43;13.60;1.00
5802;DHT22;2927;49.366;8.530;2023-04-24T06:56:09;14.10;1.00
5802;DHT22;2927;49.366;8.530;2023-04-24T06:58:35;13.50;1.00
5802;DHT22;2927;49.366;8.530;2023-04-24T07:01:00;12.70;1.00
5802;DHT22;2927;49.366;8.530;2023-04-24T07:03:26;11.80;99.90
5802;DHT22;2927;49.366;8.530;2023-04-24T07:05:51;11.10;1.00
5802;DHT22;2927;49.366;8.530;2023-04-24T07:08:18;10.70;1.00
5802;DHT22;2927;49.366;8.530;2023-04-24T07:10:45;10.50;1.00
5802;DHT22;2927;49.366;8.530;2023-04-24T07:13:11;10.30;23.30
5802;DHT22;2927;49.366;8.530;2023-04-24T07:15:37;10.10;99.90
5802;DHT22;2927;49.366;8.530;2023-04-24T07:18:02;10.10;99.90
5802;DHT22;2927;49.366;8.530;2023-04-24T07:20:28;10.10;99.90
5802;DHT22;2927;49.366;8.530;2023-04-24T07:22:54;10.10;99.90
5802;DHT22;2927;49.366;8.530;2023-04-24T07:25:20;10.20;99.90
5802;DHT22;2927;49.366;8.530;2023-04-24T07:27:45;10.30;99.90
5802;DHT22;2927;49.366;8.530;2023-04-24T07:30:11;10.40;99.90
5802;DHT22;2927;49.366;8.530;2023-04-24T07:32:37;10.50;99.90
5802;DHT22;2927;49.366;8.530;2023-04-24T07:35:03;10.60;91.90
5802;DHT22;2927;49.366;8.530;2023-04-24T07:37:28;10.80;90.00
5802;DHT22;2927;49.366;8.530;2023-04-24T07:39:54;10.90;1.00
5802;DHT22;2927;49.366;8.530;2023-04-24T07:42:20;11.00;1.00
5802;DHT22;2927;49.366;8.530;2023-04-24T07:44:45;11.10;1.00
5802;DHT22;2927;49.366;8.530;2023-04-24T07:47:13;11.40;1.00
5802;DHT22;2927;49.366;8.530;2023-04-24T07:49:41;12.10;99.90
5802;DHT22;2927;49.366;8.530;2023-04-24T07:52:07;13.50;99.90
5802;DHT22;2927;49.366;8.530;2023-04-24T07:54:32;14.00;99.90
5802;DHT22;2927;49.366;8.530;2023-04-24T07:56:58;16.10;99.90
5802;DHT22;2927;49.366;8.530;2023-04-24T07:59:23;18.20;1.00
5802;DHT22;2927;49.366;8.530;2023-04-24T08:01:49;19.20;1.00
5802;DHT22;2927;49.366;8.530;2023-04-24T08:04:15;20.20;1.00
5802;DHT22;2927;49.366;8.530;2023-04-24T08:06:40;21.30;99.90
5802;DHT22;2927;49.366;8.530;2023-04-24T08:09:06;21.90;99.90
5802;DHT22;2927;49.366;8.530;2023-04-24T08:11:31;22.70;99.90
5802;DHT22;2927;49.366;8.530;2023-04-24T08:13:58;22.60;99.90
5802;DHT22;2927;49.366;8.530;2023-04-24T08:16:23;22.90;99.90
5802;DHT22;2927;49.366;8.530;2023-04-24T08:18:49;21.80;99.90
5802;DHT22;2927;49.366;8.530;2023-04-24T08:21:15;19.90;99.90
5802;DHT22;2927;49.366;8.530;2023-04-24T08:23:42;18.40;99.90
5802;DHT22;2927;49.366;8.530;2023-04-24T08:26:08;17.00;99.90
5802;DHT22;2927;49.366;8.530;2023-04-24T08:28:34;16.10;1.00
5802;DHT22;2927;49.366;8.530;2023-04-24T08:30:59;15.30;1.00
5802;DHT22;2927;49.366;8.530;2023-04-24T08:33:25;14.70;29.20
5802;DHT22;2927;49.366;8.530;2023-04-24T08:35:51;14.10;99.90
5802;DHT22;2927;49.366;8.530;2023-04-24T08:38:16;13.80;1.00
5802;DHT22;2927;49.366;8.530;2023-04-24T08:40:42;14.00;1.00
5802;DHT22;2927;49.366;8.530;2023-04-24T08:43:09;14.60;1.00
5802;DHT22;2927;49.366;8.530;2023-04-24T08:45:35;15.40;1.00
5802;DHT22;2927;49.366;8.530;2023-04-24T08:48:02;15.90;1.00
5802;DHT22;2927;49.366;8.530;2023-04-24T08:50:28;17.30;1.00
5802;DHT22;2927;49.366;8.530;2023-04-24T08:52:54;18.80;99.90
5802;DHT22;2927;49.366;8.530;2023-04-24T08:55:20;18.40;99.90
5802;DHT22;2927;49.366;8.530;2023-04-24T08:57:51;19.10;99.90
5802;DHT22;2927;49.366;8.530;2023-04-24T09:00:21;19.90;99.90
5802;DHT22;2927;49.366;8.530;2023-04-24T09:02:49;20.00;99.90
5802;DHT22;2927;49.366;8.530;2023-04-24T09:05:16;18.80;99.90
5802;DHT22;2927;49.366;8.530;2023-04-24T09:07:45;18.10;99.90
5802;DHT22;2927;49.366;8.530;2023-04-24T09:10:11;17.30;99.90
5802;DHT22;2927;49.366;8.530;2023-04-24T09:12:37;17.20;99.90
5802;DHT22;2927;49.366;8.530;2023-04-24T09:15:03;18.20;99.90
5802;DHT22;2927;49.366;8.530;2023-04-24T09:17:30;17.60;99.90
5802;DHT22;2927;49.366;8.530;2023-04-24T09:19:56;16.70;99.90
5802;DHT22;2927;49.366;8.530;2023-04-24T09:22:21;15.70;99.90
5802;DHT22;2927;49.366;8.530;2023-04-24T09:24:47;15.00;1.00
5802;DHT22;2927;49.366;8.530;2023-04-24T09:27:13;14.40;1.00
5802;DHT22;2927;49.366;8.530;2023-04-24T09:29:54;14.10;1.00
5802;DHT22;2927;49.366;8.530;2023-04-24T09:32:21;13.70;99.90
5802;DHT22;2927;49.366;8.530;2023-04-24T09:34:48;13.60;99.90
5802;DHT22;2927;49.366;8.530;2023-04-24T09:37:29;13.40;1.00
5802;DHT22;2927;49.366;8.530;2023-04-24T09:40:08;13.60;1.00
5802;DHT22;2927;49.366;8.530;2023-04-24T09:42:33;14.10;99.90
5802;DHT22;2927;49.366;8.530;2023-04-24T09:44:59;14.80;1.00
5802;DHT22;2927;49.366;8.530;2023-04-24T09:47:25;15.30;1.00
5802;DHT22;2927;49.366;8.530;2023-04-24T09:49:50;15.50;1.00
5802;DHT22;2927;49.366;8.530;2023-04-24T09:52:22;15.70;1.00
5802;DHT22;2927;49.366;8.530;2023-04-24T09:54:53;15.90;1.00
5802;DHT22;2927;49.366;8.530;2023-04-24T09:57:19;16.00;1.00
5802;DHT22;2927;49.366;8.530;2023-04-24T09:59:45;16.00;1.00
5802;DHT22;2927;49.366;8.530;2023-04-24T10:02:18;15.60;1.00
5802;DHT22;2927;49.366;8.530;2023-04-24T10:04:57;15.10;1.00
5802;DHT22;2927;49.366;8.530;2023-04-24T10:07:26;14.50;1.00
5802;DHT22;2927;49.366;8.530;2023-04-24T10:09:52;14.10;1.00
5802;DHT22;2927;49.366;8.530;2023-04-24T10:12:18;14.00;1.00
5802;DHT22;2927;49.366;8.530;2023-04-24T10:14:45;13.90;1.00
5802;DHT22;2927;49.366;8.530;2023-04-24T10:17:12;13.60;1.00
5802;DHT22;2927;49.366;8.530;2023-04-24T10:19:38;13.40;1.00
5802;DHT22;2927;49.366;8.530;2023-04-24T10:22:04;13.30;99.90
5802;DHT22;2927;49.366;8.530;2023-04-24T10:24:30;13.10;1.00
5802;DHT22;2927;49.366;8.530;2023-04-24T10:26:57;13.00;1.00
5802;DHT22;2927;49.366;8.530;2023-04-24T10:29:23;13.00;1.00
5802;DHT22;2927;49.366;8.530;2023-04-24T10:31:49;13.10;1.00
5802;DHT22;2927;49.366;8.530;2023-04-24T10:34:16;13.20;1.00
5802;DHT22;2927;49.366;8.530;2023-04-24T10:36:51;13.30;1.00
5802;DHT22;2927;49.366;8.530;2023-04-24T10:39:18;13.20;1.00
5802;DHT22;2927;49.366;8.530;2023-04-24T10:41:45;13.30;1.00
5802;DHT22;2927;49.366;8.530;2023-04-24T10:44:14;13.60;1.00
5802;DHT22;2927;49.366;8.530;2023-04-24T10:46:44;13.80;99.90
5802;DHT22;2927;49.366;8.530;2023-04-24T10:49:10;13.80;1.00
5802;DHT22;2927;49.366;8.530;2023-04-24T10:51:50;14.00;1.00
5802;DHT22;2927;49.366;8.530;2023-04-24T10:54:35;14.00;1.00
5802;DHT22;2927;49.366;8.530;2023-04-24T10:59:47;14.60;99.90
5802;DHT22;2927;49.366;8.530;2023-04-24T11:02:16;14.60;1.00
5802;DHT22;2927;49.366;8.530;2023-04-24T11:04:42;14.50;1.00
5802;DHT22;2927;49.366;8.530;2023-04-24T11:07:12;14.50;99.90
5802;DHT22;2927;49.366;8.530;2023-04-24T11:09:38;14.70;94.40
5802;DHT22;2927;49.366;8.530;2023-04-24T11:12:12;15.00;99.90
5802;DHT22;2927;49.366;8.530;2023-04-24T11:17:36;15.40;1.00
5802;DHT22;2927;49.366;8.530;2023-04-24T11:20:05;15.40;1.00
5802;DHT22;2927;49.366;8.530;2023-04-24T11:22:33;15.60;1.00
5802;DHT22;2927;49.366;8.530;2023-04-24T11:25:01;15.80;1.00
5802;DHT22;2927;49.366;8.530;2023-04-24T11:27:31;16.10;1.00
5802;DHT22;2927;49.366;8.530;2023-04-24T11:35:00;16.50;1.00
5802;DHT22;2927;49.366;8.530;2023-04-24T11:37:43;16.50;1.00
5802;DHT22;2927;49.366;8.530;2023-04-24T11:40:10;16.60;1.00
5802;DHT22;2927;49.366;8.530;2023-04-24T11:42:38;16.90;1.00
5802;DHT22;2927;49.366;8.530;2023-04-24T11:45:23;16.90;1.00
5802;DHT22;2927;49.366;8.530;2023-04-24T11:47:49;17.00;1.00
5802;DHT22;2927;49.366;8.530;2023-04-24T11:50:17;16.90;99.90
5802;DHT22;2927;49.366;8.530;2023-04-24T11:52:44;17.00;99.90
5802;DHT22;2927;49.366;8.530;2023-04-24T11:57:39;16.70;99.90
5802;DHT22;2927;49.366;8.530;2023-04-24T12:00:05;16.60;99.90
5802;DHT22;2927;49.366;8.530;2023-04-24T12:02:31;16.40;99.90
5802;DHT22;2927;49.366;8.530;2023-04-24T12:04:56;16.10;1.00
5802;DHT22;2927;49.366;8.530;2023-04-24T12:07:23;16.10;99.90
5802;DHT22;2927;49.366;8.530;2023-04-24T12:09:58;15.90;1.00
5802;DHT22;2927;49.366;8.530;2023-04-24T12:12:26;15.90;1.00
5802;DHT22;2927;49.366;8.530;2023-04-24T12:14:54;15.50;1.00
5802;DHT22;2927;49.366;8.530;2023-04-24T12:17:25;15.70;1.00
5802;DHT22;2927;49.366;8.530;2023-04-24T12:19:51;15.80;1.00
5802;DHT22;2927;49.366;8.530;2023-04-24T12:22:17;15.80;1.00
5802;DHT22;2927;49.366;8.530;2023-04-24T12:25:03;15.80;1.00
5802;DHT22;2927;49.366;8.530;2023-04-24T12:27:33;15.90;99.90
5802;DHT22;2927;49.366;8.530;2023-04-24T12:30:04;15.90;99.90
5802;DHT22;2927;49.366;8.530;2023-04-24T12:32:30;15.90;99.90
5802;DHT22;2927;49.366;8.530;2023-04-24T12:34:56;16.20;99.90
5802;DHT22;2927;49.366;8.530;2023-04-24T12:37:26;16.00;99.90
5802;DHT22;2927;49.366;8.530;2023-04-24T12:40:09;15.90;99.90
5802;DHT22;2927;49.366;8.530;2023-04-24T12:42:42;16.10;99.90
5802;DHT22;2927;49.366;8.530;2023-04-24T12:45:08;16.10;99.90
5802;DHT22;2927;49.366;8.530;2023-04-24T12:47:35;16.30;99.90
5802;DHT22;2927;49.366;8.530;2023-04-24T12:50:02;16.30;99.90
5802;DHT22;2927;49.366;8.530;2023-04-24T12:52:29;16.20;99.90
5802;DHT22;2927;49.366;8.530;2023-04-24T12:54:57;16.10;99.90
5802;DHT22;2927;49.366;8.530;2023-04-24T12:57:24;16.20;99.90
5802;DHT22;2927;49.366;8.530;2023-04-24T12:59:50;16.10;99.90
5802;DHT22;2927;49.366;8.530;2023-04-24T13:02:16;15.90;99.90
5802;DHT22;2927;49.366;8.530;2023-04-24T13:04:45;15.80;99.90
5802;DHT22;2927;49.366;8.530;2023-04-24T13:07:12;15.80;99.90
5802;DHT22;2927;49.366;8.530;2023-04-24T13:09:39;16.00;99.90
5802;DHT22;2927;49.366;8.530;2023-04-24T13:12:05;16.10;99.90
5802;DHT22;2927;49.366;8.530;2023-04-24T13:14:35;16.00;99.90
5802;DHT22;2927;49.366;8.530;2023-04-24T13:17:01;15.90;99.90
5802;DHT22;2927;49.366;8.530;2023-04-24T13:19:27;16.20;99.90
5802;DHT22;2927;49.366;8.530;2023-04-24T13:21:55;16.30;99.90
5802;DHT22;2927;49.366;8.530;2023-04-24T13:24:22;16.20;99.90
5802;DHT22;2927;49.366;8.530;2023-04-24T13:26:51;16.40;99.90
5802;DHT22;2927;49.366;8.530;2023-04-24T13:29:17;16.50;99.90
5802;DHT22;2927;49.366;8.530;2023-04-24T13:31:42;16.80;99.90
5802;DHT22;2927;49.366;8.530;2023-04-24T13:34:08;16.90;99.90
5802;DHT22;2927;49.366;8.530;2023-04-24T13:36:33;16.90;99.90
5802;DHT22;2927;49.366;8.530;2023-04-24T13:38:59;16.80;99.90
5802;DHT22;2927;49.366;8.530;2023-04-24T13:41:24;16.90;99.90
5802;DHT22;2927;49.366;8.530;2023-04-24T13:43:50;16.80;99.90
5802;DHT22;2927;49.366;8.530;2023-04-24T13:46:16;16.80;99.90
5802;DHT22;2927;49.366;8.530;2023-04-24T13:48:42;16.60;99.90
5802;DHT22;2927;49.366;8.530;2023-04-24T13:51:07;16.30;99.90
5802;DHT22;2927;49.366;8.530;2023-04-24T13:53:33;16.00;99.90
5802;DHT22;2927;49.366;8.530;2023-04-24T13:56:01;15.80;99.90
5802;DHT22;2927;49.366;8.530;2023-04-24T13:58:27;15.60;99.90
5802;DHT22;2927;49.366;8.530;2023-04-24T14:00:53;15.60;99.90
5802;DHT22;2927;49.366;8.530;2023-04-24T14:03:18;15.40;99.90
5802;DHT22;2927;49.366;8.530;2023-04-24T14:05:44;15.20;99.90
5802;DHT22;2927;49.366;8.530;2023-04-24T14:08:09;15.10;99.90
5802;DHT22;2927;49.366;8.530;2023-04-24T14:10:35;14.90;99.90
5802;DHT22;2927;49.366;8.530;2023-04-24T14:13:00;14.70;99.90
5802;DHT22;2927;49.366;8.530;2023-04-24T14:15:26;14.50;99.90
5802;DHT22;2927;49.366;8.530;2023-04-24T14:17:52;14.20;1.00
5802;DHT22;2927;49.366;8.530;2023-04-24T14:20:17;14.10;1.00
5802;DHT22;2927;49.366;8.530;2023-04-24T14:22:43;14.10;1.00
5802;DHT22;2927;49.366;8.530;2023-04-24T14:25:08;14.00;1.00
5802;DHT22;2927;49.366;8.530;2023-04-24T14:27:34;14.10;1.00
5802;DHT22;2927;49.366;8.530;2023-04-24T14:30:00;14.20;1.00
5802;DHT22;2927;49.366;8.530;2023-04-24T14:32:26;14.50;1.00
5802;DHT22;2927;49.366;8.530;2023-04-24T14:34:52;14.80;99.90
5802;DHT22;2927;49.366;8.530;2023-04-24T14:37:17;15.00;99.90
5802;DHT22;2927;49.366;8.530;2023-04-24T14:39:43;15.00;99.90
5802;DHT22;2927;49.366;8.530;2023-04-24T14:42:08;14.90;99.90
5802;DHT22;2927;49.366;8.530;2023-04-24T14:44:34;14.90;99.90
5802;DHT22;2927;49.366;8.530;2023-04-24T14:47:00;14.60;99.90
5802;DHT22;2927;49.366;8.530;2023-04-24T14:49:25;14.50;99.90
5802;DHT22;2927;49.366;8.530;2023-04-24T14:51:51;14.30;1.00
5802;DHT22;2927;49.366;8.530;2023-04-24T14:54:17;14.10;1.00
5802;DHT22;2927;49.366;8.530;2023-04-24T14:56:42;14.30;1.00
5802;DHT22;2927;49.366;8.530;2023-04-24T14:59:09;14.60;99.90
5802;DHT22;2927;49.366;8.530;2023-04-24T15:01:35;14.90;1.00
5802;DHT22;2927;49.366;8.530;2023-04-24T15:04:01;14.60;1.00
5802;DHT22;2927;49.366;8.530;2023-04-24T15:06:26;14.50;1.00
5802;DHT22;2927;49.366;8.530;2023-04-24T15:08:52;14.40;1.00
5802;DHT22;2927;49.366;8.530;2023-04-24T15:11:17;14.40;1.00
5802;DHT22;2927;49.366;8.530;2023-04-24T15:13:43;14.40;1.00
5802;DHT22;2927;49.366;8.530;2023-04-24T15:16:10;14.40;1.00
5802;DHT22;2927;49.366;8.530;2023-04-24T15:18:36;14.40;1.00
5802;DHT22;2927;49.366;8.530;2023-04-24T15:21:02;14.30;1.00
5802;DHT22;2927;49.366;8.530;2023-04-24T15:23:27;14.40;1.00
5802;DHT22;2927;49.366;8.530;2023-04-24T15:25:53;14.50;1.00
5802;DHT22;2927;49.366;8.530;2023-04-24T15:28:19;14.40;1.00
5802;DHT22;2927;49.366;8.530;2023-04-24T15:30:45;14.20;1.00
5802;DHT22;2927;49.366;8.530;2023-04-24T15:33:10;14.10;1.00
5802;DHT22;2927;49.366;8.530;2023-04-24T15:38:06;13.80;99.90
5802;DHT22;2927;49.366;8.530;2023-04-24T15:40:32;13.70;99.90
5802;DHT22;2927;49.366;8.530;2023-04-24T15:42:58;13.70;99.90
5802;DHT22;2927;49.366;8.530;2023-04-24T15:45:24;13.50;99.90
5802;DHT22;2927;49.366;8.530;2023-04-24T15:47:50;13.40;1.00
5802;DHT22;2927;49.366;8.530;2023-04-24T15:50:16;13.50;1.00
5802;DHT22;2927;49.366;8.530;2023-04-24T15:52:43;13.50;1.00
5802;DHT22;2927;49.366;8.530;2023-04-24T15:55:09;13.40;1.00
5802;DHT22;2927;49.366;8.530;2023-04-24T15:57:35;13.40;1.00
5802;DHT22;2927;49.366;8.530;2023-04-24T16:00:02;13.20;1.00
5802;DHT22;2927;49.366;8.530;2023-04-24T16:02:28;13.10;1.00
5802;DHT22;2927;49.366;8.530;2023-04-24T16:04:54;13.00;99.90
5802;DHT22;2927;49.366;8.530;2023-04-24T16:07:19;13.10;1.00
5802;DHT22;2927;49.366;8.530;2023-04-24T16:09:46;13.30;1.00
5802;DHT22;2927;49.366;8.530;2023-04-24T16:12:11;13.40;1.00
5802;DHT22;2927;49.366;8.530;2023-04-24T16:14:37;13.50;1.00
5802;DHT22;2927;49.366;8.530;2023-04-24T16:17:03;13.50;1.00
5802;DHT22;2927;49.366;8.530;2023-04-24T16:19:29;13.50;1.00
5802;DHT22;2927;49.366;8.530;2023-04-24T16:21:55;13.50;99.90